createdAt,value
2023-09-08T00:01:57.867Z,75.75
2023-09-08T00:04:26.387Z,77.60
2023-09-08T00:06:54.422Z,78.71
2023-09-08T00:09:22.361Z,77.13
2023-09-08T00:11:50.656Z,78.42
2023-09-08T00:14:19.464Z,81.42
2023-09-08T00:16:50.642Z,80.52
2023-09-08T00:19:19.169Z,80.81
2023-09-08T00:21:47.090Z,79.39
2023-09-08T00:26:41.822Z,77.33
2023-09-08T00:29:09.779Z,76.46
2023-09-08T00:31:40.931Z,78.88
2023-09-08T00:34:09.164Z,80.67
2023-09-08T00:36:40.445Z,80.65
2023-09-08T00:39:11.412Z,79.07
2023-09-08T00:41:39.654Z,78.12
2023-09-08T00:44:10.308Z,79.17
2023-09-08T00:46:38.691Z,80.01
2023-09-08T00:49:07.532Z,76.88
2023-09-08T00:51:36.386Z,81.41
2023-09-08T00:54:04.592Z,78.70
2023-09-08T00:56:33.947Z,80.55
2023-09-08T00:59:03.905Z,80.10
2023-09-08T01:01:33.325Z,80.41
2023-09-08T01:04:03.673Z,79.97
2023-09-08T01:06:34.269Z,80.73
2023-09-08T01:09:02.569Z,79.02
2023-09-08T01:11:35.718Z,78.98
2023-09-08T01:14:04.069Z,81.01
2023-09-08T01:16:32.077Z,78.60
2023-09-08T01:19:01.022Z,80.91
2023-09-08T01:21:41.475Z,82.85
2023-09-08T01:24:45.273Z,83.75
2023-09-08T01:29:43.453Z,80.28
2023-09-08T01:32:12.143Z,80.43
2023-09-08T01:37:09.069Z,82.11
2023-09-08T01:39:37.211Z,81.71
2023-09-08T01:42:05.560Z,81.63
2023-09-08T01:44:37.612Z,82.26
2023-09-08T01:47:09.095Z,83.73
2023-09-08T01:49:37.076Z,82.16
2023-09-08T01:52:06.527Z,82.26
2023-09-08T01:54:37.540Z,80.95
2023-09-08T01:57:06.106Z,83.61
2023-09-08T01:59:34.089Z,82.79
2023-09-08T02:02:02.068Z,81.93
2023-09-08T02:06:57.276Z,83.77
2023-09-08T02:09:36.198Z,84.22
2023-09-08T02:12:05.295Z,84.32
2023-09-08T02:14:33.359Z,83.38
2023-09-08T02:17:01.686Z,82.80
2023-09-08T02:19:30.252Z,80.87
2023-09-08T02:21:58.092Z,82.08
2023-09-08T02:24:26.154Z,83.10
2023-09-08T02:26:56.324Z,83.13
2023-09-08T02:29:24.352Z,79.96
2023-09-08T02:31:54.700Z,82.48
2023-09-08T02:34:23.052Z,80.88
2023-09-08T02:36:52.271Z,80.82
2023-09-08T02:39:21.118Z,78.77
2023-09-08T02:41:49.597Z,79.75
2023-09-08T02:44:20.598Z,82.06
2023-09-08T02:46:48.520Z,83.29
2023-09-08T02:49:16.915Z,80.31
2023-09-08T02:51:45.316Z,81.85
2023-09-08T02:54:13.242Z,82.72
2023-09-08T02:56:41.550Z,82.77
2023-09-08T02:59:10.064Z,81.15
2023-09-08T03:01:42.269Z,83.11
2023-09-08T03:04:13.943Z,82.70
2023-09-08T03:06:45.656Z,84.41
2023-09-08T03:11:41.019Z,84.35
2023-09-08T03:14:09.038Z,86.34
2023-09-08T03:16:37.282Z,84.86
2023-09-08T03:19:05.411Z,86.89
2023-09-08T03:21:33.251Z,85.84
2023-09-08T03:24:01.463Z,85.45
2023-09-08T03:26:29.523Z,84.15
2023-09-08T03:28:57.473Z,84.10
2023-09-08T03:33:52.692Z,85.13
2023-09-08T03:36:20.635Z,84.57
2023-09-08T03:38:48.970Z,83.87
2023-09-08T03:41:17.024Z,85.40
2023-09-08T03:43:45.073Z,84.09
2023-09-08T03:48:40.184Z,83.67
2023-09-08T03:51:08.189Z,81.57
2023-09-08T03:53:36.927Z,80.83
2023-09-08T03:56:05.037Z,82.21
2023-09-08T03:58:32.731Z,83.09
2023-09-08T04:01:01.136Z,83.00
2023-09-08T04:03:29.592Z,82.22
2023-09-08T04:05:58.584Z,83.28
2023-09-08T04:08:26.544Z,82.77
2023-09-08T04:10:55.205Z,80.71
2023-09-08T04:13:23.299Z,82.49
2023-09-08T04:15:51.521Z,82.90
2023-09-08T04:18:20.149Z,82.51
2023-09-08T04:23:16.645Z,82.47
2023-09-08T04:25:44.949Z,81.61
2023-09-08T04:28:12.980Z,82.20
2023-09-08T04:30:41.106Z,83.51
2023-09-08T04:33:09.787Z,80.44
2023-09-08T04:38:05.059Z,81.94
2023-09-08T04:40:33.635Z,80.32
2023-09-08T04:43:02.253Z,81.38
2023-09-08T04:45:31.725Z,80.13
2023-09-08T04:48:01.404Z,81.24
2023-09-08T04:50:31.365Z,80.23
2023-09-08T04:53:02.734Z,79.57
2023-09-08T04:55:31.393Z,80.47
2023-09-08T04:58:02.438Z,80.39
2023-09-08T05:00:30.889Z,80.31
2023-09-08T05:03:00.876Z,79.25
2023-09-08T05:07:57.632Z,79.25
2023-09-08T05:10:29.794Z,79.23
2023-09-08T05:13:02.183Z,79.55
2023-09-08T05:15:35.010Z,79.53
2023-09-08T05:18:04.248Z,79.06
2023-09-08T05:20:32.586Z,79.70
2023-09-08T05:23:01.577Z,79.51
2023-09-08T05:25:30.046Z,78.67
2023-09-08T05:27:58.950Z,78.23
2023-09-08T05:30:27.717Z,78.27
2023-09-08T05:32:59.353Z,77.66
2023-09-08T05:35:28.623Z,79.17
2023-09-08T05:37:57.291Z,77.73
2023-09-08T05:40:27.762Z,77.18
2023-09-08T05:42:57.377Z,76.17
2023-09-08T05:45:27.549Z,75.93
2023-09-08T05:47:56.399Z,76.62
2023-09-08T05:50:26.137Z,77.54
2023-09-08T05:52:56.016Z,76.22
2023-09-08T05:55:26.967Z,78.10
2023-09-08T05:57:56.415Z,74.48
2023-09-08T06:00:27.624Z,73.79
2023-09-08T06:02:57.421Z,72.48
2023-09-08T06:05:27.909Z,72.02
2023-09-08T06:08:06.449Z,70.19
2023-09-08T06:10:40.829Z,70.96
2023-09-08T06:13:10.543Z,66.73
2023-09-08T06:15:40.398Z,66.74
2023-09-08T06:18:08.896Z,66.36
2023-09-08T06:20:48.764Z,65.17
2023-09-08T06:25:51.394Z,66.12
2023-09-08T06:28:24.430Z,66.79
2023-09-08T06:30:57.537Z,67.38
2023-09-08T06:33:27.358Z,66.96
2023-09-08T06:35:56.431Z,67.09
2023-09-08T06:38:28.703Z,66.22
2023-09-08T06:41:00.220Z,65.26
2023-09-08T06:43:31.334Z,69.17
2023-09-08T06:46:06.790Z,66.67
2023-09-08T06:48:35.995Z,66.27
2023-09-08T06:51:06.588Z,66.94
2023-09-08T06:53:37.668Z,66.85
2023-09-08T06:56:13.806Z,65.75
2023-09-08T06:58:43.402Z,65.82
2023-09-08T07:01:16.533Z,64.87
2023-09-08T07:03:51.057Z,65.32
2023-09-08T07:06:25.800Z,63.88
2023-09-08T07:09:00.159Z,63.13
2023-09-08T07:11:36.410Z,62.75
2023-09-08T07:14:08.376Z,62.89
2023-09-08T07:16:40.849Z,62.17
2023-09-08T07:19:13.788Z,62.09
2023-09-08T07:21:43.794Z,61.76
2023-09-08T07:24:13.744Z,62.72
2023-09-08T07:26:45.303Z,62.11
2023-09-08T07:29:18.324Z,61.61
2023-09-08T07:31:53.592Z,65.60
2023-09-08T07:34:26.106Z,61.75
2023-09-08T07:36:58.691Z,61.95
2023-09-08T07:39:33.773Z,62.79
2023-09-08T07:42:10.335Z,63.03
2023-09-08T07:44:41.234Z,62.41
2023-09-08T07:47:14.211Z,62.35
2023-09-08T07:49:49.013Z,61.69
2023-09-08T07:52:25.149Z,60.29
2023-09-08T07:54:57.191Z,59.26
2023-09-08T07:57:33.475Z,61.04
2023-09-08T08:00:06.144Z,61.61
2023-09-08T08:02:50.593Z,59.97
2023-09-08T08:05:21.534Z,57.33
2023-09-08T08:07:54.783Z,56.89
2023-09-08T08:10:28.666Z,55.52
2023-09-08T08:13:01.330Z,55.53
2023-09-08T08:15:42.335Z,56.98
2023-09-08T08:18:21.767Z,60.35
2023-09-08T08:20:51.978Z,57.07
2023-09-08T08:23:23.291Z,56.95
2023-09-08T08:25:55.037Z,59.88
2023-09-08T08:28:28.753Z,57.62
2023-09-08T08:31:00.630Z,57.52
2023-09-08T08:33:36.102Z,58.55
2023-09-08T08:36:06.499Z,57.53
2023-09-08T08:38:40.981Z,57.09
2023-09-08T08:41:13.905Z,62.80
2023-09-08T08:43:52.327Z,57.83
2023-09-08T08:46:24.752Z,59.17
2023-09-08T08:48:57.613Z,58.02
2023-09-08T08:51:32.308Z,59.25
2023-09-08T08:54:14.716Z,60.08
2023-09-08T08:56:46.184Z,61.40
2023-09-08T08:59:15.970Z,66.00
2023-09-08T09:04:18.775Z,66.34
2023-09-08T09:06:54.787Z,66.87
2023-09-08T09:09:31.577Z,66.91
2023-09-08T09:12:01.211Z,67.15
2023-09-08T09:14:37.763Z,67.27
2023-09-08T09:19:48.479Z,65.60
2023-09-08T09:22:25.889Z,65.26
2023-09-08T09:25:04.680Z,64.66
2023-09-08T09:27:33.406Z,63.51
2023-09-08T09:30:08.200Z,64.03
2023-09-08T09:32:38.776Z,62.48
2023-09-08T09:35:10.807Z,61.72
2023-09-08T09:37:43.284Z,62.15
2023-09-08T09:40:13.371Z,62.76
2023-09-08T09:42:47.592Z,71.98
2023-09-08T09:45:19.786Z,74.65
2023-09-08T09:47:53.697Z,75.22
2023-09-08T09:50:35.074Z,72.50
2023-09-08T09:53:17.228Z,70.45
2023-09-08T09:55:50.305Z,69.31
2023-09-08T09:58:21.906Z,67.30
2023-09-08T10:00:56.898Z,67.66
2023-09-08T10:05:56.546Z,67.62
2023-09-08T10:08:25.698Z,67.05
2023-09-08T10:11:08.906Z,68.23
2023-09-08T10:13:51.926Z,68.35
2023-09-08T10:16:28.969Z,66.74
2023-09-08T10:19:08.652Z,67.05
2023-09-08T10:21:51.062Z,65.87
2023-09-08T10:24:41.197Z,64.79
2023-09-08T10:27:14.212Z,63.34
2023-09-08T10:29:45.296Z,62.64
2023-09-08T10:32:19.371Z,65.50
2023-09-08T10:35:02.264Z,65.60
2023-09-08T10:37:42.042Z,66.35
2023-09-08T10:40:29.769Z,71.31
2023-09-08T10:43:12.353Z,77.12
2023-09-08T10:45:42.913Z,76.47
2023-09-08T10:48:17.525Z,79.27
2023-09-08T10:50:49.341Z,78.69
2023-09-08T10:53:24.573Z,79.12
2023-09-08T10:58:35.328Z,79.55
2023-09-08T11:01:09.228Z,79.33
2023-09-08T11:03:40.100Z,77.84
2023-09-08T11:06:10.584Z,77.47
2023-09-08T11:08:52.078Z,76.34
2023-09-08T11:11:23.789Z,76.22
2023-09-08T11:13:59.085Z,77.33
2023-09-08T11:16:36.705Z,76.05
2023-09-08T11:19:11.218Z,73.85
2023-09-08T11:21:42.354Z,73.56
2023-09-08T11:24:16.874Z,73.17
2023-09-08T22:32:20.162Z,99.99
2023-09-08T22:34:47.795Z,99.99
2023-09-08T22:37:16.935Z,100.00
2023-09-08T22:39:44.669Z,100.00
2023-09-08T22:42:12.563Z,100.00
2023-09-08T22:44:40.983Z,100.00
2023-09-08T22:47:15.226Z,100.00
2023-09-08T22:49:58.759Z,100.00
2023-09-08T22:52:26.999Z,100.00
2023-09-08T22:55:02.569Z,100.00
2023-09-08T22:57:37.468Z,100.00
2023-09-08T23:00:07.719Z,100.00
2023-09-08T23:02:35.876Z,100.00
2023-09-08T23:05:04.314Z,100.00
2023-09-08T23:07:32.666Z,100.00
2023-09-08T23:10:00.863Z,100.00
2023-09-08T23:12:31.844Z,100.00
2023-09-08T23:15:00.102Z,100.00
2023-09-08T23:17:28.314Z,100.00
2023-09-08T23:19:56.815Z,100.00
2023-09-08T23:22:25.054Z,100.00
2023-09-08T23:24:52.980Z,100.00
2023-09-08T23:27:20.861Z,100.00
2023-09-08T23:29:49.237Z,100.00
2023-09-08T23:32:17.185Z,100.00
2023-09-08T23:34:45.098Z,100.00
2023-09-08T23:39:40.575Z,100.00
2023-09-08T23:42:08.722Z,100.00
2023-09-08T23:47:05.260Z,100.00
2023-09-08T23:49:36.320Z,100.00
2023-09-08T23:52:04.881Z,100.00
2023-09-08T23:54:36.048Z,100.00
2023-09-08T23:57:05.700Z,100.00
2023-09-08T23:59:36.427Z,100.00
